createdAt,value
2022-08-18T00:01:15.860Z,81.20
2022-08-18T00:03:55.569Z,80.86
2022-08-18T00:06:29.551Z,80.72
2022-08-18T00:09:00.132Z,80.79
2022-08-18T00:11:40.512Z,80.99
2022-08-18T00:14:22.686Z,81.14
2022-08-18T00:16:53.934Z,81.12
2022-08-18T00:19:45.333Z,81.17
2022-08-18T00:22:15.924Z,81.45
2022-08-18T00:24:52.074Z,81.32
2022-08-18T00:27:23.290Z,81.10
2022-08-18T00:29:53.608Z,81.26
2022-08-18T00:32:25.314Z,81.53
2022-08-18T00:34:55.364Z,81.47
2022-08-18T00:37:24.211Z,81.16
2022-08-18T00:39:54.242Z,80.62
2022-08-18T00:42:29.800Z,80.49
2022-08-18T00:45:02.504Z,80.95
2022-08-18T00:47:41.069Z,81.17
2022-08-18T00:50:24.284Z,81.30
2022-08-18T00:53:05.348Z,81.38
2022-08-18T00:55:34.962Z,81.27
2022-08-18T00:58:16.243Z,81.30
2022-08-18T01:00:46.137Z,81.23
2022-08-18T01:03:16.387Z,81.00
2022-08-18T01:05:52.780Z,80.84
2022-08-18T01:08:28.833Z,80.97
2022-08-18T01:11:01.783Z,80.68
2022-08-18T01:13:33.142Z,80.79
2022-08-18T01:16:25.073Z,80.64
2022-08-18T01:19:12.602Z,80.97
2022-08-18T01:21:52.317Z,80.76
2022-08-18T01:24:47.250Z,80.83
2022-08-18T01:27:18.974Z,80.75
2022-08-18T01:29:49.605Z,80.98
2022-08-18T01:32:20.756Z,80.68
2022-08-18T01:34:51.418Z,81.03
2022-08-18T01:37:23.077Z,81.04
2022-08-18T01:41:22.245Z,80.91
2022-08-18T01:42:43.687Z,80.99
2022-08-18T01:45:15.264Z,81.39
2022-08-18T01:47:47.868Z,81.18
2022-08-18T01:50:18.267Z,80.72
2022-08-18T01:52:47.648Z,80.83
2022-08-18T01:55:15.719Z,80.89
2022-08-18T01:57:45.527Z,80.80
2022-08-18T02:00:17.053Z,80.67
2022-08-18T02:02:47.188Z,80.65
2022-08-18T02:05:36.072Z,80.81
2022-08-18T02:08:05.318Z,81.06
2022-08-18T02:10:34.773Z,81.11
2022-08-18T02:13:03.561Z,80.70
2022-08-18T02:15:32.624Z,80.90
2022-08-18T02:18:01.748Z,80.81
2022-08-18T02:20:30.033Z,80.72
2022-08-18T02:22:58.941Z,80.67
2022-08-18T02:25:26.938Z,80.80
2022-08-18T02:27:55.064Z,80.61
2022-08-18T02:30:23.565Z,80.46
2022-08-18T02:32:51.525Z,80.41
2022-08-18T02:35:19.603Z,80.76
2022-08-18T02:37:48.421Z,80.76
2022-08-18T02:40:19.297Z,80.58
2022-08-18T02:42:48.221Z,80.63
2022-08-18T02:45:16.382Z,80.75
2022-08-18T02:47:45.286Z,80.81
2022-08-18T02:50:14.055Z,80.94
2022-08-18T02:52:42.025Z,80.81
2022-08-18T02:55:10.827Z,80.87
2022-08-18T02:57:43.936Z,81.11
2022-08-18T03:00:15.998Z,81.11
2022-08-18T03:02:51.823Z,81.25
2022-08-18T03:05:20.613Z,81.27
2022-08-18T03:07:50.793Z,81.22
2022-08-18T03:10:32.467Z,81.33
2022-08-18T03:13:02.958Z,81.32
2022-08-18T03:15:31.952Z,81.54
2022-08-18T03:18:01.351Z,81.56
2022-08-18T03:20:30.592Z,81.59
2022-08-18T03:23:05.522Z,81.57
2022-08-18T03:25:33.937Z,81.53
2022-08-18T03:28:05.110Z,81.35
2022-08-18T03:30:33.283Z,80.97
2022-08-18T03:33:01.456Z,80.84
2022-08-18T03:35:30.556Z,80.95
2022-08-18T03:38:00.258Z,80.91
2022-08-18T03:40:28.438Z,80.82
2022-08-18T03:42:56.812Z,80.74
2022-08-18T03:45:28.631Z,80.48
2022-08-18T03:47:56.744Z,80.64
2022-08-18T03:50:25.761Z,80.61
2022-08-18T03:52:54.423Z,80.39
2022-08-18T03:55:22.807Z,80.68
2022-08-18T03:57:53.225Z,80.81
2022-08-18T04:00:23.868Z,81.17
2022-08-18T04:02:51.966Z,81.09
2022-08-18T04:05:20.113Z,80.95
2022-08-18T04:07:48.321Z,80.91
2022-08-18T04:10:19.745Z,80.78
2022-08-18T04:12:48.050Z,80.94
2022-08-18T04:15:17.131Z,81.15
2022-08-18T04:18:03.074Z,81.46
2022-08-18T04:20:35.504Z,81.58
2022-08-18T04:23:03.750Z,81.58
2022-08-18T04:25:33.375Z,81.44
2022-08-18T04:28:03.669Z,81.18
2022-08-18T04:30:31.882Z,81.04
2022-08-18T04:33:01.667Z,81.06
2022-08-18T04:35:31.171Z,81.29
2022-08-18T04:37:59.267Z,81.37
2022-08-18T04:40:27.454Z,81.70
2022-08-18T04:42:55.796Z,81.79
2022-08-18T04:45:24.124Z,81.74
2022-08-18T04:47:53.649Z,81.75
2022-08-18T04:50:24.648Z,81.68
2022-08-18T04:53:11.335Z,81.75
2022-08-18T04:55:39.410Z,82.08
2022-08-18T04:58:08.092Z,82.07
2022-08-18T05:00:36.573Z,81.65
2022-08-18T05:03:04.745Z,81.72
2022-08-18T05:05:32.918Z,81.74
2022-08-18T05:08:01.194Z,81.62
2022-08-18T05:10:29.271Z,81.58
2022-08-18T05:12:57.747Z,81.85
2022-08-18T05:15:26.679Z,81.81
2022-08-18T05:17:56.731Z,81.92
2022-08-18T05:20:26.775Z,81.79
2022-08-18T05:22:56.078Z,81.52
2022-08-18T05:25:24.253Z,81.20
2022-08-18T05:27:52.654Z,81.04
2022-08-18T05:30:20.744Z,80.97
2022-08-18T05:32:50.314Z,80.78
2022-08-18T05:35:31.285Z,80.62
2022-08-18T05:38:24.350Z,80.61
2022-08-18T05:41:13.734Z,80.37
2022-08-18T05:43:51.965Z,80.25
2022-08-18T05:46:32.730Z,79.97
2022-08-18T05:49:01.008Z,80.24
2022-08-18T05:51:41.440Z,80.28
2022-08-18T05:54:29.274Z,80.52
2022-08-18T05:57:02.421Z,80.58
2022-08-18T05:59:37.596Z,80.28
2022-08-18T06:02:31.648Z,79.84
2022-08-18T06:05:38.665Z,79.78
2022-08-18T06:08:12.773Z,79.41
2022-08-18T06:10:46.077Z,78.74
2022-08-18T06:13:15.368Z,78.75
2022-08-18T06:15:52.145Z,78.75
2022-08-18T06:18:47.462Z,78.62
2022-08-18T06:21:43.708Z,78.25
2022-08-18T06:24:30.200Z,77.79
2022-08-18T06:27:11.070Z,77.45
2022-08-18T06:29:47.738Z,77.47
2022-08-18T06:32:28.505Z,77.24
2022-08-18T06:35:34.269Z,76.83
2022-08-18T06:38:36.305Z,76.22
2022-08-18T06:41:43.254Z,75.90
2022-08-18T06:44:37.743Z,75.59
2022-08-18T06:47:09.097Z,75.20
2022-08-18T06:49:55.092Z,75.06
2022-08-18T06:52:39.030Z,74.76
2022-08-18T06:55:30.655Z,74.26
2022-08-18T06:58:01.612Z,74.46
2022-08-18T07:00:34.232Z,74.62
2022-08-18T07:03:13.304Z,74.38
2022-08-18T07:06:07.935Z,74.22
2022-08-18T07:08:41.802Z,74.51
2022-08-18T07:11:30.043Z,74.81
2022-08-18T07:14:21.369Z,75.03
2022-08-18T07:16:59.243Z,75.40
2022-08-18T07:19:32.260Z,75.94
2022-08-18T07:22:13.559Z,76.68
2022-08-18T07:24:49.737Z,77.10
2022-08-18T07:27:22.684Z,76.82
2022-08-18T07:30:06.940Z,76.82
2022-08-18T07:32:43.659Z,76.98
2022-08-18T07:35:16.545Z,76.81
2022-08-18T07:37:56.650Z,76.24
2022-08-18T07:40:42.334Z,76.02
2022-08-18T07:43:27.580Z,75.69
2022-08-18T07:46:14.014Z,75.29
2022-08-18T07:48:42.317Z,75.09
2022-08-18T07:51:33.828Z,75.11
2022-08-18T07:54:37.714Z,74.51
2022-08-18T07:57:02.725Z,73.59
2022-08-18T07:59:54.853Z,73.83
2022-08-18T08:02:36.655Z,73.55
2022-08-18T08:05:23.573Z,73.06
2022-08-18T08:07:59.770Z,72.08
2022-08-18T08:10:38.147Z,72.11
2022-08-18T08:13:36.866Z,72.04
2022-08-18T08:16:19.445Z,71.73
2022-08-18T08:19:02.674Z,71.27
2022-08-18T08:22:12.505Z,70.51
2022-08-18T08:24:46.428Z,70.18
2022-08-18T08:27:38.565Z,69.32
2022-08-18T08:30:26.687Z,68.66
2022-08-18T08:33:04.001Z,68.31
2022-08-18T08:35:49.566Z,68.02
2022-08-18T08:38:42.325Z,67.28
2022-08-18T08:41:19.975Z,67.17
2022-08-18T08:44:23.219Z,66.83
2022-08-18T08:47:08.291Z,66.61
2022-08-18T08:49:45.420Z,66.32
2022-08-18T08:52:44.574Z,66.08
2022-08-18T08:55:18.285Z,65.52
2022-08-18T08:57:55.216Z,65.41
2022-08-18T09:00:24.563Z,65.53
2022-08-18T09:02:52.632Z,65.23
2022-08-18T09:05:28.041Z,64.25
2022-08-18T09:08:47.049Z,63.49
2022-08-18T09:11:49.731Z,62.73
2022-08-18T09:14:43.092Z,61.50
2022-08-18T09:17:34.567Z,60.26
2022-08-18T09:20:27.571Z,60.63
2022-08-18T09:23:18.883Z,61.19
2022-08-18T09:25:52.253Z,60.39
2022-08-18T09:28:56.812Z,61.09
2022-08-18T09:31:27.766Z,58.91
2022-08-18T09:34:10.603Z,58.72
2022-08-18T09:37:03.383Z,57.99
2022-08-18T09:40:10.858Z,56.95
2022-08-18T09:45:53.444Z,57.28
2022-08-18T09:48:30.835Z,56.47
2022-08-18T09:50:37.042Z,57.96
2022-08-18T09:51:23.694Z,56.81
2022-08-18T09:53:54.552Z,57.12
2022-08-18T09:56:55.547Z,57.20
2022-08-18T09:59:34.145Z,56.53
2022-08-18T10:02:28.227Z,55.87
2022-08-18T10:05:21.438Z,55.07
2022-08-18T10:08:21.576Z,54.56
2022-08-18T10:11:08.882Z,55.21
2022-08-18T10:14:06.650Z,54.50
2022-08-18T10:17:21.826Z,55.23
2022-08-18T10:20:06.277Z,54.53
2022-08-18T10:22:38.758Z,54.45
2022-08-18T10:25:23.053Z,52.41
2022-08-18T10:27:56.898Z,51.17
2022-08-18T10:30:34.569Z,50.17
2022-08-18T10:33:18.282Z,48.67
2022-08-18T10:36:03.060Z,48.31
2022-08-18T10:38:49.735Z,47.21
2022-08-18T10:44:29.277Z,46.91
2022-08-18T10:47:00.574Z,45.11
2022-08-18T10:49:32.441Z,45.73
2022-08-18T10:52:12.656Z,44.01
2022-08-18T10:54:50.996Z,44.63
2022-08-18T10:57:31.224Z,46.36
2022-08-18T11:00:17.669Z,43.94
2022-08-18T11:06:14.519Z,42.88
2022-08-18T11:11:53.158Z,40.88
2022-08-18T11:14:52.641Z,41.04
2022-08-18T11:17:45.189Z,41.47
2022-08-18T11:20:17.964Z,41.65
2022-08-18T11:22:52.880Z,41.07
2022-08-18T11:25:45.036Z,41.38
2022-08-18T11:28:30.259Z,42.23
2022-08-18T11:31:00.106Z,40.42
2022-08-18T11:33:28.702Z,39.43
2022-08-18T11:36:01.777Z,39.10
2022-08-18T11:38:33.059Z,39.07
2022-08-18T11:41:24.809Z,39.66
2022-08-18T11:44:03.387Z,39.71
2022-08-18T11:46:41.084Z,39.11
2022-08-18T11:49:33.904Z,38.14
2022-08-18T11:52:29.410Z,38.33
2022-08-18T11:57:59.729Z,37.34
2022-08-18T12:00:57.309Z,36.57
2022-08-18T12:03:38.435Z,36.46
2022-08-18T12:10:18.409Z,33.92
2022-08-18T12:12:30.820Z,34.71
2022-08-18T12:15:04.168Z,33.97
2022-08-18T12:17:37.107Z,33.29
2022-08-18T12:20:09.267Z,33.43
2022-08-18T12:22:43.114Z,33.78
2022-08-18T12:25:15.731Z,34.06
2022-08-18T12:27:55.417Z,34.69
2022-08-18T12:30:23.720Z,34.38
2022-08-18T12:32:56.171Z,32.74
2022-08-18T12:35:34.910Z,31.44
2022-08-18T12:38:12.490Z,31.21
2022-08-18T12:40:42.730Z,31.77
2022-08-18T12:43:10.959Z,32.39
2022-08-18T12:45:39.377Z,32.59
2022-08-18T12:48:10.280Z,31.80
2022-08-18T12:50:49.983Z,31.67
2022-08-18T12:56:25.224Z,31.62
2022-08-18T12:58:53.771Z,31.20
2022-08-18T13:01:23.583Z,31.05
2022-08-18T13:04:11.186Z,31.32
2022-08-18T13:06:59.347Z,31.23
2022-08-18T13:09:34.861Z,30.73
2022-08-18T13:12:17.522Z,29.58
2022-08-18T13:14:46.204Z,30.57
2022-08-18T13:17:30.347Z,30.26
2022-08-18T13:20:11.219Z,29.85
2022-08-18T13:22:42.279Z,30.60
2022-08-18T13:25:32.481Z,31.74
2022-08-18T13:28:02.393Z,30.64
2022-08-18T13:30:32.339Z,31.06
2022-08-18T13:33:03.468Z,30.65
2022-08-18T13:35:38.090Z,30.16
2022-08-18T13:38:20.824Z,30.85
2022-08-18T13:40:52.217Z,30.77
2022-08-18T13:43:26.328Z,32.03
2022-08-18T13:45:56.111Z,30.91
2022-08-18T13:48:25.939Z,29.97
2022-08-18T13:50:56.675Z,31.04
2022-08-18T13:53:27.435Z,29.94
2022-08-18T13:55:59.538Z,30.17
2022-08-18T13:58:29.526Z,29.79
2022-08-18T14:01:41.888Z,30.18
2022-08-18T14:03:52.488Z,30.65
2022-08-18T14:06:22.489Z,31.12
2022-08-18T14:08:53.863Z,31.08
2022-08-18T14:11:32.970Z,31.28
2022-08-18T14:14:02.788Z,31.12
2022-08-18T14:16:33.495Z,30.73
2022-08-18T14:19:22.709Z,30.56
2022-08-18T14:22:12.577Z,30.88
2022-08-18T14:25:01.011Z,30.14
2022-08-18T14:27:35.944Z,30.24
2022-08-18T14:30:14.840Z,30.69
2022-08-18T14:32:48.948Z,31.04
2022-08-18T14:36:04.242Z,30.27
2022-08-18T14:38:09.824Z,29.98
2022-08-18T14:40:43.060Z,30.70
2022-08-18T14:43:17.123Z,31.17
2022-08-18T14:45:48.874Z,30.21
2022-08-18T14:48:23.378Z,30.61
2022-08-18T14:50:55.590Z,30.59
2022-08-18T14:53:28.070Z,31.23
2022-08-18T14:55:59.232Z,31.13
2022-08-18T14:58:29.969Z,31.51
2022-08-18T15:01:08.517Z,31.61
2022-08-18T15:03:40.233Z,31.42
2022-08-18T15:06:08.922Z,31.16
2022-08-18T15:08:45.474Z,30.91
2022-08-18T15:11:16.786Z,31.16
2022-08-18T15:13:46.623Z,31.43
2022-08-18T15:16:16.437Z,31.42
2022-08-18T15:18:46.025Z,31.86
2022-08-18T15:21:35.816Z,31.89
2022-08-18T15:24:27.015Z,32.00
2022-08-18T15:27:05.584Z,31.59
2022-08-18T15:29:34.965Z,32.07
2022-08-18T15:32:05.716Z,32.18
2022-08-18T15:34:47.208Z,32.29
2022-08-18T15:37:24.404Z,31.85
2022-08-18T15:40:21.616Z,32.30
2022-08-18T15:43:02.200Z,32.56
2022-08-18T15:45:42.953Z,32.60
2022-08-18T15:48:21.779Z,32.78
2022-08-18T15:50:51.570Z,32.72
2022-08-18T15:53:29.719Z,33.02
2022-08-18T15:55:58.365Z,33.23
2022-08-18T15:58:32.412Z,33.44
2022-08-18T16:01:00.581Z,33.63
2022-08-18T16:03:29.260Z,33.91
2022-08-18T16:05:59.358Z,33.82
2022-08-18T16:08:28.150Z,33.97
2022-08-18T16:10:57.151Z,34.18
2022-08-18T16:13:29.412Z,34.53
2022-08-18T16:15:57.592Z,34.43
2022-08-18T16:18:27.609Z,34.88
2022-08-18T16:20:56.669Z,34.84
2022-08-18T16:23:25.081Z,34.77
2022-08-18T16:25:52.972Z,34.93
2022-08-18T16:28:21.345Z,35.35
2022-08-18T16:31:03.226Z,35.19
2022-08-18T16:33:33.036Z,35.35
2022-08-18T16:36:06.807Z,35.34
2022-08-18T16:38:37.127Z,35.53
2022-08-18T16:41:11.246Z,35.87
2022-08-18T16:43:44.423Z,36.30
2022-08-18T16:46:15.864Z,36.58
2022-08-18T16:48:46.099Z,37.06
2022-08-18T16:51:21.869Z,37.31
2022-08-18T16:53:53.065Z,37.55
2022-08-18T16:56:25.418Z,37.34
2022-08-18T16:59:12.235Z,37.80
2022-08-18T17:01:59.423Z,37.91
2022-08-18T17:04:33.632Z,37.89
2022-08-18T17:07:06.010Z,37.94
2022-08-18T17:09:35.135Z,38.30
2022-08-18T17:12:03.874Z,38.77
2022-08-18T17:14:32.635Z,39.29
2022-08-18T17:17:01.296Z,39.41
2022-08-18T17:19:34.935Z,39.79
2022-08-18T17:22:05.374Z,40.60
2022-08-18T17:24:33.703Z,42.35
2022-08-18T17:27:27.691Z,43.67
2022-08-18T17:30:16.691Z,44.15
2022-08-18T17:33:04.879Z,44.57
2022-08-18T17:35:44.602Z,45.41
2022-08-18T17:38:12.708Z,45.81
2022-08-18T17:40:48.091Z,46.27
2022-08-18T17:43:19.809Z,46.42
2022-08-18T17:45:57.754Z,46.98
2022-08-18T17:48:33.361Z,47.36
2022-08-18T17:51:22.326Z,47.93
2022-08-18T17:53:50.421Z,48.62
2022-08-18T17:56:23.317Z,48.36
2022-08-18T17:59:42.888Z,49.08
2022-08-18T18:02:28.595Z,49.64
2022-08-18T18:05:04.409Z,50.18
2022-08-18T18:07:38.371Z,51.06
2022-08-18T18:10:14.355Z,51.76
2022-08-18T18:12:42.541Z,51.33
2022-08-18T18:15:13.606Z,51.70
2022-08-18T18:17:43.277Z,51.97
2022-08-18T18:20:33.071Z,52.71
2022-08-18T18:23:19.463Z,53.43
2022-08-18T18:25:47.857Z,53.58
2022-08-18T18:28:33.539Z,53.40
2022-08-18T18:31:26.904Z,53.18
2022-08-18T18:34:07.103Z,53.74
2022-08-18T18:36:53.177Z,53.80
2022-08-18T18:39:23.308Z,54.00
2022-08-18T18:42:10.604Z,54.39
2022-08-18T18:44:51.732Z,54.83
2022-08-18T18:47:28.764Z,55.56
2022-08-18T18:50:07.274Z,55.99
2022-08-18T18:52:53.452Z,56.01
2022-08-18T18:55:27.332Z,56.09
2022-08-18T18:58:30.714Z,55.94
2022-08-18T19:01:03.860Z,56.64
2022-08-18T19:04:02.762Z,56.79
2022-08-18T19:07:04.325Z,57.39
2022-08-18T19:09:50.228Z,57.70
2022-08-18T19:12:21.251Z,57.74
2022-08-18T19:14:59.784Z,58.15
2022-08-18T19:17:40.538Z,58.55
2022-08-18T19:20:25.403Z,58.74
2022-08-18T19:23:01.672Z,58.65
2022-08-18T19:25:35.488Z,58.62
2022-08-18T19:28:15.941Z,59.10
2022-08-18T19:30:47.510Z,59.32
2022-08-18T19:33:25.965Z,59.95
2022-08-18T19:35:59.016Z,60.27
2022-08-18T19:38:47.467Z,60.00
2022-08-18T19:41:31.310Z,60.42
2022-08-18T19:44:30.292Z,60.64
2022-08-18T19:47:06.076Z,60.64
2022-08-18T19:49:49.407Z,60.60
2022-08-18T19:52:46.305Z,61.00
2022-08-18T19:55:31.592Z,60.98
2022-08-18T19:58:18.710Z,61.14
2022-08-18T20:01:01.992Z,61.38
2022-08-18T20:03:42.996Z,61.37
2022-08-18T20:07:06.070Z,62.07
2022-08-18T20:10:01.640Z,62.18
2022-08-18T20:13:00.688Z,62.09
2022-08-18T20:15:29.063Z,62.23
2022-08-18T20:17:57.242Z,62.30
2022-08-18T20:20:26.843Z,62.51
2022-08-18T20:22:57.491Z,63.18
2022-08-18T20:25:25.655Z,63.18
2022-08-18T20:27:59.972Z,63.36
2022-08-18T20:30:30.804Z,63.57
2022-08-18T20:33:14.269Z,63.39
2022-08-18T20:35:53.982Z,63.82
2022-08-18T20:38:35.554Z,63.89
2022-08-18T20:41:28.531Z,64.40
2022-08-18T20:44:32.751Z,64.50
2022-08-18T20:47:13.217Z,64.96
2022-08-18T20:50:23.595Z,65.05
2022-08-18T20:53:49.946Z,65.11
2022-08-18T20:56:31.967Z,65.31
2022-08-18T20:59:09.299Z,65.31
2022-08-18T21:01:39.151Z,65.50
2022-08-18T21:04:07.485Z,65.60
2022-08-18T21:06:42.148Z,65.62
2022-08-18T21:09:11.011Z,65.64
2022-08-18T21:11:45.676Z,65.34
2022-08-18T21:14:27.162Z,65.54
2022-08-18T21:16:59.086Z,65.32
2022-08-18T21:19:29.474Z,65.19
2022-08-18T21:22:01.573Z,65.27
2022-08-18T21:24:41.932Z,65.34
2022-08-18T21:27:26.593Z,65.38
2022-08-18T21:29:58.214Z,65.53
2022-08-18T21:32:33.594Z,65.94
2022-08-18T21:35:18.048Z,65.99
2022-08-18T21:38:04.244Z,66.13
2022-08-18T21:40:35.189Z,66.36
2022-08-18T21:43:03.326Z,66.60
2022-08-18T21:45:33.414Z,67.10
2022-08-18T21:48:06.056Z,66.94
2022-08-18T21:50:35.858Z,67.24
2022-08-18T21:53:22.755Z,67.45
2022-08-18T21:55:55.349Z,67.43
2022-08-18T21:58:40.126Z,67.70
2022-08-18T22:01:28.369Z,67.79
2022-08-18T22:03:56.310Z,67.36
2022-08-18T22:06:40.706Z,67.77
2022-08-18T22:09:30.266Z,68.23
2022-08-18T22:12:54.701Z,68.37
2022-08-18T22:15:26.110Z,68.66
2022-08-18T22:18:00.017Z,68.75
2022-08-18T22:20:37.309Z,68.69
2022-08-18T22:23:32.723Z,68.90
2022-08-18T22:26:18.203Z,69.03
2022-08-18T22:29:10.458Z,69.04
2022-08-18T22:31:43.736Z,69.05
2022-08-18T22:34:16.620Z,69.03
2022-08-18T22:37:10.030Z,69.08
2022-08-18T22:39:44.889Z,69.10
2022-08-18T22:42:15.714Z,69.27
2022-08-18T22:44:44.750Z,69.33
2022-08-18T22:47:13.127Z,69.42
2022-08-18T22:49:42.525Z,69.29
2022-08-18T22:52:29.956Z,69.37
2022-08-18T22:55:06.542Z,69.26
2022-08-18T22:57:37.376Z,69.33
2022-08-18T23:00:10.255Z,69.31
2022-08-18T23:02:38.929Z,69.39
2022-08-18T23:05:08.061Z,69.63
2022-08-18T23:07:36.716Z,69.78
2022-08-18T23:10:13.447Z,70.14
2022-08-18T23:12:44.597Z,70.38
2022-08-18T23:15:14.291Z,70.38
2022-08-18T23:17:43.745Z,70.60
2022-08-18T23:20:19.306Z,70.47
2022-08-18T23:22:48.491Z,70.92
2022-08-18T23:25:17.308Z,71.13
2022-08-18T23:27:45.466Z,70.92
2022-08-18T23:30:15.147Z,71.02
2022-08-18T23:32:43.855Z,70.78
2022-08-18T23:35:12.131Z,70.79
2022-08-18T23:37:41.690Z,70.52
2022-08-18T23:40:17.490Z,70.40
2022-08-18T23:42:47.815Z,70.18
2022-08-18T23:45:15.995Z,69.99
2022-08-18T23:47:44.515Z,70.25
2022-08-18T23:50:12.749Z,70.36
2022-08-18T23:52:41.237Z,70.62
2022-08-18T23:55:13.397Z,70.76
2022-08-18T23:57:41.497Z,70.74
